Consulta les dades en temps real de l'estació municipal de St. Hilari Sacalm
| Hora UTC | 05:15 |
|---|---|
| Temperatura | 19.9 ºC |
| Humitat | 64.8 % |
| Pressió | 1024.1 hPa |
| Pluja | 0.0 mm |
| Velocitat vent | 0.0 km/h |
| Direcció vent | SW |
| Radiació solar | 1.6 W/m² |
| Temperatura (ºC) | Humitat (%) | Pressió (hPa) | Velocitat vent (km/h) | Precipitació (mm) | Radiació solar (W/m²) | |||||||||||||
|---|---|---|---|---|---|---|---|---|---|---|---|---|---|---|---|---|---|---|
| Hora UTC | Aire | Humitat | Pressió | Vel. | Dir. | Vel. Max | Dir. | Intent. màx 5 min. | Rad. Sol. | |||||||||
| 00:05 | 24.7 | 56.0 | 1024.0 | 0.7 | NW | 0.7 | NW | 0.0 | 0.1 | |||||||||
| 00:10 | 24.7 | 56.4 | 1024.0 | 1.7 | WNW | 8.8 | W | 0.0 | 0.1 | |||||||||
| 00:15 | 24.4 | 57.7 | 1024.0 | 0.1 | WNW | 3.4 | WNW | 0.0 | 0.1 | |||||||||
| 00:20 | 24.0 | 59.5 | 1024.0 | 1.9 | WNW | 8.8 | WNW | 0.0 | 0.1 | |||||||||
| 00:25 | 23.6 | 61.3 | 1024.0 | 1.0 | WNW | 8.8 | WNW | 0.0 | 0.1 | |||||||||
| 00:30 | 23.0 | 63.5 | 1024.0 | 0.4 | W | 6.1 | WNW | 0.0 | 0.1 | |||||||||
| 00:35 | 22.7 | 65.1 | 1023.9 | 0.3 | WNW | 6.1 | NW | 0.0 | 0.1 | |||||||||
| 00:40 | 22.5 | 65.8 | 1023.9 | 0.6 | W | 6.1 | WNW | 0.0 | 0.1 | |||||||||
| 00:45 | 22.2 | 66.7 | 1023.9 | 0.0 | NNE | 0.0 | SW | 0.0 | 0.1 | |||||||||
| 00:50 | 22.2 | 67.9 | 1023.9 | 0.5 | WNW | 8.8 | WNW | 0.0 | 0.1 | |||||||||
| 00:55 | 23.1 | 65.6 | 1023.9 | 0.0 | NNE | 0.0 | NW | 0.0 | 0.1 | |||||||||
| 01:00 | 23.7 | 63.4 | 1023.9 | 0.0 | NNE | 0.0 | NW | 0.0 | 0.1 | |||||||||
| 01:05 | 24.0 | 62.4 | 1023.9 | 0.1 | NNW | 3.4 | N | 0.0 | 0.1 | |||||||||
| 01:10 | 23.9 | 63.1 | 1024.0 | 0.0 | NNE | 0.0 | NNW | 0.0 | 0.1 | |||||||||
| 01:15 | 23.9 | 62.7 | 1024.0 | 0.0 | NNE | 0.0 | NNW | 0.0 | 0.1 | |||||||||
| 01:20 | 24.1 | 61.8 | 1024.0 | 1.1 | NW | 8.8 | WNW | 0.0 | 0.1 | |||||||||
| 01:25 | 23.9 | 62.0 | 1024.0 | 0.8 | WNW | 8.8 | WNW | 0.0 | 0.1 | |||||||||
| 01:30 | 23.4 | 63.0 | 1024.0 | 0.0 | NNE | 0.0 | W | 0.0 | 0.1 | |||||||||
| 01:35 | 22.7 | 65.7 | 1024.0 | 0.0 | NNE | 0.0 | WSW | 0.0 | 0.1 | |||||||||
| 01:40 | 22.2 | 68.0 | 1024.0 | 0.0 | NNE | 0.0 | SSW | 0.0 | 0.2 | |||||||||
| 01:45 | 21.9 | 69.1 | 1024.0 | 0.0 | NNE | 0.0 | WSW | 0.0 | 0.2 | |||||||||
| 01:50 | 21.8 | 69.7 | 1024.0 | 0.0 | NNE | 0.0 | S | 0.0 | 0.1 | |||||||||
| 01:55 | 21.9 | 69.2 | 1024.1 | 0.1 | WSW | 6.1 | WSW | 0.0 | 0.1 | |||||||||
| 02:00 | 21.8 | 69.9 | 1024.1 | 0.0 | NNE | 0.0 | SSW | 0.0 | 0.1 | |||||||||
| 02:05 | 21.5 | 71.6 | 1024.0 | 0.0 | NNE | 0.0 | SW | 0.0 | 0.1 | |||||||||
| 02:10 | 21.2 | 72.7 | 1024.1 | 0.1 | SSW | 3.4 | SSW | 0.0 | 0.1 | |||||||||
| 02:15 | 21.0 | 73.1 | 1024.1 | 0.2 | W | 6.1 | W | 0.0 | 0.1 | |||||||||
| 02:20 | 21.1 | 73.1 | 1024.1 | 0.7 | W | 8.8 | W | 0.0 | 0.1 | |||||||||
| 02:25 | 21.2 | 72.7 | 1024.0 | 1.1 | W | 8.8 | WSW | 0.0 | 0.1 | |||||||||
| 02:30 | 21.4 | 72.1 | 1024.0 | 0.0 | NNE | 0.0 | SW | 0.0 | 0.1 | |||||||||
| 02:35 | 21.8 | 70.4 | 1024.0 | 0.0 | NNE | 0.0 | SSW | 0.0 | 0.1 | |||||||||
| 02:40 | 21.8 | 70.1 | 1024.0 | 0.0 | NNE | 0.0 | WNW | 0.0 | 0.1 | |||||||||
| 02:45 | 21.7 | 70.3 | 1024.0 | 0.0 | NNE | 0.0 | SW | 0.0 | 0.1 | |||||||||
| 02:50 | 21.7 | 70.3 | 1024.0 | 0.0 | NNE | 0.0 | S | 0.0 | 0.1 | |||||||||
| 02:55 | 21.5 | 71.0 | 1024.0 | 0.0 | NNE | 0.0 | SW | 0.0 | 0.1 | |||||||||
| 03:00 | 21.4 | 71.1 | 1024.0 | 0.0 | WSW | 3.4 | WSW | 0.0 | 0.1 | |||||||||
| 03:05 | 21.4 | 71.2 | 1024.0 | 0.0 | NNE | 0.0 | S | 0.0 | 0.1 | |||||||||
| 03:10 | 21.3 | 71.0 | 1024.0 | 0.0 | NNE | 0.0 | S | 0.0 | 0.1 | |||||||||
| 03:15 | 21.3 | 70.8 | 1024.0 | 0.0 | NNE | 0.0 | SSE | 0.0 | 0.1 | |||||||||
| 03:20 | 21.2 | 71.3 | 1024.0 | 0.0 | NNE | 0.0 | SSW | 0.0 | 0.2 | |||||||||
| 03:25 | 21.0 | 71.5 | 1024.0 | 0.0 | NNE | 0.0 | SW | 0.0 | 0.1 | |||||||||
| 03:30 | 21.1 | 70.6 | 1024.0 | 0.0 | NNE | 0.0 | S | 0.0 | 0.1 | |||||||||
| 03:35 | 21.0 | 70.6 | 1024.0 | 0.0 | NNE | 0.0 | ESE | 0.0 | 0.1 | |||||||||
| 03:40 | 21.0 | 70.9 | 1024.0 | 0.0 | NNE | 0.0 | WSW | 0.0 | 0.1 | |||||||||
| 03:45 | 20.8 | 71.9 | 1024.0 | 0.0 | NNE | 0.0 | WSW | 0.0 | 0.1 | |||||||||
| 03:50 | 20.6 | 71.8 | 1024.0 | 0.0 | NNE | 0.0 | SSW | 0.0 | 0.1 | |||||||||
| 03:55 | 20.6 | 71.7 | 1024.0 | 0.0 | NNE | 0.0 | S | 0.0 | 0.1 | |||||||||
| 04:00 | 20.6 | 71.7 | 1024.0 | 0.0 | NNE | 0.0 | S | 0.0 | 0.1 | |||||||||
| 04:05 | 20.7 | 70.7 | 1024.0 | 0.0 | NNE | 0.0 | SSW | 0.0 | 0.1 | |||||||||
| 04:10 | 20.8 | 69.2 | 1023.9 | 0.0 | NNE | 0.0 | SSW | 0.0 | 0.1 | |||||||||
| 04:15 | 20.8 | 69.3 | 1023.9 | 0.0 | NNE | 0.0 | SW | 0.0 | 0.1 | |||||||||
| 04:20 | 20.7 | 68.6 | 1023.9 | 0.0 | NNE | 0.0 | SSW | 0.0 | 0.1 | |||||||||
| 04:25 | 20.7 | 68.2 | 1023.9 | 0.0 | NNE | 0.0 | SSW | 0.0 | 0.1 | |||||||||
| 04:30 | 20.5 | 68.4 | 1023.9 | 0.0 | NNE | 0.0 | SSW | 0.0 | 0.1 | |||||||||
| 04:35 | 20.4 | 68.8 | 1023.9 | 0.0 | NNE | 0.0 | WSW | 0.0 | 0.1 | |||||||||
| 04:40 | 20.2 | 69.3 | 1023.9 | 0.4 | SW | 6.1 | WSW | 0.0 | 0.1 | |||||||||
| 04:45 | 20.1 | 67.9 | 1023.9 | 0.0 | NNE | 0.0 | SSW | 0.0 | 0.1 | |||||||||
| 04:50 | 20.1 | 66.5 | 1024.0 | 0.1 | WSW | 6.1 | WSW | 0.0 | 0.2 | |||||||||
| 04:55 | 20.2 | 64.3 | 1024.0 | 0.1 | SW | 6.1 | SW | 0.0 | 0.2 | |||||||||
| 05:00 | 20.4 | 64.1 | 1024.1 | 0.0 | WSW | 3.4 | WSW | 0.0 | 0.2 | |||||||||
| 05:05 | 20.3 | 64.8 | 1024.1 | 0.2 | SSW | 6.1 | SSW | 0.0 | 0.3 | |||||||||
| 05:10 | 20.1 | 65.7 | 1024.1 | 0.0 | WSW | 3.4 | SSW | 0.0 | 0.8 | |||||||||
| 05:15 | 19.9 | 64.8 | 1024.1 | 0.0 | SW | 3.4 | SW | 0.0 | 1.6 | |||||||||
| Màxima | 24.7 | 73.1 | 1024.1 | 1.9 | WNW | 8.8 | WSW | 0.0 | 1.6 | |||||||||
| Mínima | 19.9 | 56.0 | 1023.9 | |||||||||||||||
| Total | 0.0 | |||||||||||||||||